Latest Weather Observations for Mount Wellington

IDT60801

Issued at 9:05 pm EDT Saturday 22 November 2014 (issued every 30 minutes, with the page automatically refreshed every 10 minutes)

About weather observations | Map of weather stations | Latest weather observations for TAS | Other Formats
Station Details ID: 094087 Name: MOUNT WELLINGTON Lat: -42.90 Lon: 147.24 Height: 1260.47 m
Data from the previous 72 hours. | See also: Recent months at Mount Wellington
Date/Time
EDT
Temp
°C
App
Temp
°C
Dew
Point
Rel
Hum
%
Delta-T
°C
Wind Press
QNH
hPa
Press
MSL
hPa
Rain
since 9 am
mm
Dir
 
Spd
km/h
Gust
km/h
Spd
kts
Gust
kts
22/09:00pm 9.1 2.2 6.4 83 1.3 NW 32 43 17 23 - - 0.8
22/08:30pm 9.1 2.1 6.7 85 1.2 NW 33 43 18 23 - - 0.8
22/08:00pm 9.2 1.8 6.8 85 1.2 NW 35 52 19 28 - - 0.8
22/07:45pm 9.6 1.8 6.7 82 1.5 NW 37 56 20 30 - - 0.8
22/07:30pm 9.5 1.8 6.9 84 1.3 NW 37 50 20 27 - - 0.8
22/07:00pm 9.2 1.9 7.3 88 1.0 NW 35 50 19 27 - - 0.8
22/06:30pm 9.5 1.8 7.1 85 1.2 NNW 37 44 20 24 - - 0.6
22/06:00pm 10.6 5.0 7.3 80 1.7 NNW 26 37 14 20 - - 0.4
22/05:30pm 10.7 5.6 7.6 81 1.6 NW 24 35 13 19 - - 0.4
22/05:00pm 9.8 3.8 7.2 84 1.3 NW 28 37 15 20 - - 0.4
22/04:30pm 9.8 3.2 7.6 86 1.1 NW 32 41 17 22 - - 0.4
22/04:01pm 10.3 4.2 6.6 78 1.9 NNW 28 46 15 25 - - 0.0
22/04:00pm 10.2 3.8 6.9 80 1.7 NNW 30 46 16 25 - - 0.0
22/03:57pm 10.6 4.5 6.6 76 2.0 NNW 28 46 15 25 - - 0.0
22/03:30pm 10.7 4.2 6.6 76 2.1 NNW 30 41 16 22 - - 0.0
22/03:00pm 12.3 7.4 6.8 69 2.8 NNW 22 43 12 23 - - 0.0
22/02:30pm 10.9 5.2 6.5 74 2.2 NNW 26 46 14 25 - - 0.0
22/02:00pm 10.7 4.7 7.0 78 1.9 NW 28 37 15 20 - - 0.0
22/01:30pm 11.1 3.0 7.0 76 2.1 NW 39 54 21 29 - - 0.0
22/01:00pm 9.6 2.1 6.5 81 1.6 NW 35 52 19 28 - - 0.0
22/12:36pm 10.9 1.9 6.6 75 2.2 NW 43 61 23 33 - - 0.0
22/12:30pm 11.8 2.9 6.9 72 2.5 NW 43 57 23 31 - - 0.0
22/12:09pm 10.6 1.3 6.0 73 2.3 NW 44 65 24 35 - - 0.0
22/12:00pm 9.6 -0.1 5.8 77 1.9 NW 46 61 25 33 - - 0.0
22/11:50am 10.1 0.0 5.7 74 2.2 WNW 48 67 26 36 - - 0.0
22/11:30am 10.8 0.3 5.8 71 2.5 NW 50 67 27 36 - - 0.0
22/11:00am 9.4 -1.6 4.8 73 2.2 NW 52 67 28 36 - - 0.0
22/10:30am 7.5 -4.7 3.9 78 1.7 NW 57 78 31 42 - - 0.0
22/10:01am 7.4 -6.1 3.1 74 2.0 NW 63 83 34 45 - - 0.0
22/10:00am 7.4 -6.4 3.1 74 2.0 NW 65 83 35 45 - - 0.0
22/09:33am 6.5 -6.2 2.8 77 1.7 NW 59 78 32 42 - - 0.0
22/09:30am 6.4 -6.7 2.7 77 1.7 NW 61 78 33 42 - - 0.0
22/09:17am 6.6 -5.9 2.3 74 1.9 NW 57 78 31 42 - - 0.0
22/09:00am 5.7 -6.7 1.2 73 1.9 NW 56 69 30 37 - - 2.2
22/08:30am 5.5 -6.0 -0.1 67 2.3 NW 50 63 27 34 - - 2.2
22/08:00am 5.9 -4.8 0.3 67 2.4 WNW 46 63 25 34 - - 2.2
22/07:30am 5.9 -5.2 0.0 66 2.5 WNW 48 61 26 33 - - 2.2
22/07:03am 6.0 -5.5 -0.1 65 2.5 WNW 50 70 27 38 - - 2.2
22/07:00am 6.1 -5.8 0.0 65 2.6 WNW 52 70 28 38 - - 2.2
22/06:42am 6.0 -5.1 -0.3 64 2.6 WNW 48 67 26 36 - - 2.2
22/06:30am 6.3 -4.7 0.4 66 2.5 WNW 48 59 26 32 - - 2.2
22/06:00am 6.7 -5.7 1.2 68 2.4 WNW 56 69 30 37 - - 2.2
22/05:30am 6.4 -5.3 0.9 68 2.4 WNW 52 65 28 35 - - 2.2
22/05:00am 6.1 -4.7 -0.2 64 2.6 WNW 46 57 25 31 - - 2.2
22/04:30am 5.6 -5.7 -1.5 60 2.9 WNW 48 57 26 31 - - 2.2
22/04:00am 5.5 -5.5 -2.1 58 3.0 WNW 46 56 25 30 - - 2.2
22/03:30am 5.2 -6.1 -1.7 61 2.7 WNW 48 57 26 31 - - 2.2
22/03:00am 5.1 -5.7 -0.3 68 2.2 WNW 46 57 25 31 - - 2.2
22/02:30am 4.5 -6.3 -0.5 70 2.0 WNW 46 54 25 29 - - 2.2
22/02:00am 4.3 -6.2 -1.3 67 2.2 NW 44 56 24 30 - - 2.2
22/01:30am 4.1 -6.5 -1.9 65 2.3 NW 44 52 24 28 - - 2.2
22/01:00am 3.7 -6.4 -2.7 63 2.4 NW 41 46 22 25 - - 2.2
22/12:30am 3.8 -5.8 -1.5 68 2.1 NW 39 48 21 26 - - 2.2
22/12:00am 3.5 -4.8 -1.4 70 1.9 WNW 32 43 17 23 - - 2.2
 
Date/Time
EDT
Temp
°C
App
Temp
°C
Dew
Point
Rel
Hum
%
Delta-T
°C
Wind Press
QNH
hPa
Press
MSL
hPa
Rain
since 9 am
mm
Dir
 
Spd
km/h
Gust
km/h
Spd
kts
Gust
kts
21/11:30pm 4.0 -4.3 -0.4 73 1.8 NW 33 43 18 23 - - 2.2
21/11:00pm 4.0 -4.0 0.3 77 1.5 NW 32 39 17 21 - - 2.2
21/10:30pm 3.6 -3.5 1.2 84 1.0 NW 28 33 15 18 - - 2.2
21/10:00pm 4.0 -4.0 1.4 83 1.1 NW 33 39 18 21 - - 2.2
21/09:30pm 3.6 -3.8 1.6 87 0.8 NW 30 37 16 20 - - 2.2
21/09:00pm 3.5 -1.8 1.7 88 0.8 NW 19 26 10 14 - - 2.2
21/08:30pm 3.8 -1.8 1.2 83 1.1 WNW 20 28 11 15 - - 2.2
21/08:00pm 4.6 -1.4 1.3 79 1.4 W 22 30 12 16 - - 2.2
21/07:30pm 5.2 -1.9 1.1 75 1.7 W 28 37 15 20 - - 2.2
21/07:00pm 6.2 1.0 2.3 76 1.7 W 19 26 10 14 - - 2.2
21/06:30pm 6.1 0.9 2.4 77 1.6 W 19 28 10 15 - - 2.2
21/06:00pm 5.3 0.1 2.7 83 1.2 W 19 30 10 16 - - 2.2
21/05:30pm 6.2 1.2 3.5 83 1.2 W 19 26 10 14 - - 2.2
21/05:00pm 5.6 0.4 3.3 85 1.0 W 20 28 11 15 - - 2.2
21/04:30pm 6.0 1.1 4.0 87 0.9 WSW 19 26 10 14 - - 2.2
21/04:00pm 5.4 -0.2 3.6 88 0.8 WNW 22 30 12 16 - - 2.2
21/03:30pm 4.7 -0.4 4.0 95 0.3 W 20 30 11 16 - - 2.2
21/03:00pm 4.9 0.1 4.6 98 0.1 W 19 30 10 16 - - 2.2
21/02:30pm 4.2 -1.3 3.9 98 0.1 W 22 30 12 16 - - 2.2
21/02:00pm 5.0 -0.4 4.7 98 0.1 W 22 28 12 15 - - 2.2
21/01:30pm 4.2 -2.1 3.9 98 0.1 W 26 33 14 18 - - 2.2
21/01:00pm 4.3 -1.2 4.0 98 0.1 W 22 30 12 16 - - 1.4
21/12:30pm 4.1 -2.6 3.8 98 0.1 W 28 35 15 19 - - 1.4
21/12:00pm 3.8 -3.9 3.5 98 0.1 WSW 33 39 18 21 - - 1.4
21/11:30am 4.6 -1.6 4.3 98 0.1 WSW 26 33 14 18 - - 1.2
21/11:00am 5.2 -1.3 4.9 98 0.1 WSW 28 35 15 19 - - 0.8
21/10:30am 5.1 -0.6 4.8 98 0.1 W 24 32 13 17 - - 0.6
21/10:00am 4.7 -2.8 4.4 98 0.1 WSW 33 39 18 21 - - 0.6
21/09:30am 4.6 -2.0 4.2 97 0.2 WSW 28 39 15 21 - - 0.4
21/09:00am 5.2 -0.9 4.8 97 0.2 WSW 26 35 14 19 - - 1.0
21/08:30am 5.3 -0.4 4.9 97 0.2 W 24 33 13 18 - - 1.0
21/08:00am 5.7 0.4 5.1 96 0.3 W 22 33 12 18 - - 1.0
21/07:30am 5.9 1.1 5.6 98 0.1 W 20 30 11 16 - - 1.0
21/07:00am 5.9 0.3 5.6 98 0.1 W 24 35 13 19 - - 1.0
21/06:30am 5.9 0.7 5.6 98 0.1 W 22 32 12 17 - - 1.0
21/06:00am 6.1 -0.6 5.8 98 0.1 WSW 30 35 16 19 - - 1.0
21/05:30am 6.2 1.6 5.8 97 0.2 W 19 26 10 14 - - 1.0
21/05:00am 6.2 -0.8 5.9 98 0.1 W 32 44 17 24 - - 1.0
21/04:30am 6.6 -0.5 6.2 97 0.2 W 33 44 18 24 - - 1.0
21/04:00am 6.8 -0.7 6.5 98 0.1 W 35 48 19 26 - - 1.0
21/03:30am 7.1 2.2 6.8 98 0.1 WNW 22 32 12 17 - - 1.0
21/03:00am 7.4 0.6 7.0 97 0.2 W 32 39 17 21 - - 1.0
21/02:30am 7.5 0.6 7.1 97 0.2 W 33 50 18 27 - - 1.0
21/02:00am 7.4 0.4 7.0 97 0.2 WNW 33 44 18 24 - - 1.0
21/01:35am 7.5 0.1 6.8 95 0.3 WNW 35 54 19 29 - - 1.0
21/01:30am 7.5 -0.3 6.8 95 0.3 WNW 37 54 20 29 - - 1.0
21/01:00am 7.6 0.3 7.0 96 0.3 WNW 35 48 19 26 - - 1.0
21/12:30am 7.9 0.6 7.1 95 0.4 W 35 48 19 26 - - 1.0
21/12:00am 7.8 0.9 7.2 96 0.3 WNW 33 46 18 25 - - 1.0
 
Date/Time
EDT
Temp
°C
App
Temp
°C
Dew
Point
Rel
Hum
%
Delta-T
°C
Wind Press
QNH
hPa
Press
MSL
hPa
Rain
since 9 am
mm
Dir
 
Spd
km/h
Gust
km/h
Spd
kts
Gust
kts
20/11:30pm 8.1 1.3 7.7 97 0.2 W 33 46 18 25 - - 1.0
20/11:00pm 8.0 1.2 7.7 98 0.2 W 33 48 18 26 - - 1.0
20/10:30pm 8.1 2.6 7.7 97 0.2 WNW 26 33 14 18 - - 1.0
20/10:00pm 8.5 3.5 8.1 97 0.2 NW 24 32 13 17 - - 1.0
20/09:30pm 8.7 2.5 7.9 95 0.4 NW 30 39 16 21 - - 1.0
20/09:00pm 8.5 2.4 8.1 97 0.2 NW 30 37 16 20 - - 1.0
20/08:30pm 8.6 2.9 8.2 97 0.2 NW 28 37 15 20 - - 1.0
20/08:00pm 9.0 2.4 8.4 96 0.3 NW 33 43 18 23 - - 1.0
20/07:30pm 8.9 1.9 8.5 97 0.2 NW 35 44 19 24 - - 1.0
20/07:00pm 9.0 2.6 8.6 97 0.2 NW 32 43 17 23 - - 1.0
20/06:30pm 9.0 2.6 8.4 96 0.3 NW 32 41 17 22 - - 0.8
20/06:00pm 9.2 3.1 8.3 94 0.5 NW 30 41 16 22 - - 0.6
20/05:30pm 9.2 3.1 8.3 94 0.5 NW 30 39 16 21 - - 0.6
20/05:00pm 9.1 2.4 8.2 94 0.5 WNW 33 43 18 23 - - 0.6
20/04:30pm 9.6 2.8 7.9 89 0.9 WNW 33 44 18 24 - - 0.0
20/04:00pm 9.2 3.5 6.5 83 1.3 NNW 26 39 14 21 - - 0.0
20/03:30pm 9.3 4.7 5.7 78 1.8 N 19 22 10 12 - - 0.0
20/03:00pm 9.6 5.9 6.1 79 1.7 N 15 22 8 12 - - 0.0
20/02:30pm 10.2 6.8 5.8 74 2.2 N 13 17 7 9 - - 0.0
20/02:00pm 10.8 6.8 4.9 67 2.9 NNW 15 19 8 10 - - 0.0
20/01:30pm 9.8 4.1 2.9 62 3.2 NNW 22 32 12 17 - - 0.0
20/01:00pm 9.7 2.8 2.3 60 3.4 NW 28 35 15 19 - - 0.0
20/12:30pm 8.4 1.2 4.8 78 1.7 WNW 32 43 17 23 - - 0.0
20/12:00pm 10.1 3.3 4.9 70 2.5 WNW 30 41 16 22 - - 0.0
20/11:30am 10.0 2.7 5.4 73 2.3 WNW 33 46 18 25 - - 0.0
20/11:12am 10.4 2.0 5.6 72 2.4 W 39 59 21 32 - - 0.0
20/11:00am 10.1 0.9 6.3 77 1.9 W 44 59 24 32 - - 0.0
20/10:30am 10.4 -0.4 6.2 75 2.1 W 52 69 28 37 - - 0.0
20/10:00am 10.9 -0.9 5.7 70 2.6 W 57 76 31 41 - - 0.0
20/09:30am 10.4 -0.4 4.1 65 3.0 W 50 72 27 39 - - 0.0
20/09:27am 10.2 0.0 3.3 62 3.2 W 46 65 25 35 - - 0.0
20/09:00am 9.3 -0.6 1.9 60 3.3 WNW 43 59 23 32 - - 0.0
20/08:30am 10.8 -0.3 4.3 64 3.1 W 52 76 28 41 - - 0.0
20/08:10am 9.9 0.0 2.7 61 3.3 WNW 44 63 24 34 - - 0.0
20/08:00am 9.7 0.6 1.6 57 3.6 WNW 39 50 21 27 - - 0.0
20/07:32am 9.5 -1.0 1.2 56 3.7 W 46 65 25 35 - - 0.0
20/07:30am 9.6 -1.2 2.2 60 3.4 W 48 65 26 35 - - 0.0
20/07:00am 9.1 -2.6 1.3 58 3.5 W 52 76 28 41 - - 0.0
20/06:44am 8.8 -3.1 1.9 62 3.1 W 54 72 29 39 - - 0.0
20/06:30am 8.9 -2.2 2.3 63 3.0 W 50 67 27 36 - - 0.0
20/06:00am 8.7 -2.5 1.6 61 3.2 W 50 72 27 39 - - 0.0
20/05:30am 9.1 -2.8 2.4 63 3.1 W 54 80 29 43 - - 0.0
20/05:07am 9.6 -2.0 2.0 59 3.4 W 52 76 28 41 - - 0.0
20/05:00am 9.5 -1.7 1.7 58 3.5 W 50 69 27 37 - - 0.0
20/04:37am 9.4 -0.7 0.1 52 4.0 W 43 63 23 34 - - 0.0
20/04:30am 9.8 -1.2 0.4 52 4.1 W 48 65 26 35 - - 0.0
20/04:04am 9.0 -1.3 -1.1 49 4.2 W 43 70 23 38 - - 0.0
20/04:00am 8.8 -1.2 -1.3 49 4.2 W 41 57 22 31 - - 0.0
20/03:30am 8.3 -1.0 -2.3 47 4.3 WNW 37 50 20 27 - - 0.0
20/03:00am 8.2 -0.7 -2.1 48 4.2 W 35 52 19 28 - - 0.0
20/02:30am 8.1 -0.2 -2.0 49 4.1 WNW 32 43 17 23 - - 0.0
20/02:00am 8.3 0.0 -1.8 49 4.1 WNW 32 41 17 22 - - 0.0
20/01:30am 8.3 0.4 -1.8 49 4.1 NW 30 41 16 22 - - 0.0
20/01:00am 8.4 -1.5 -1.1 51 4.0 WNW 41 52 22 28 - - 0.0
20/12:30am 8.8 -0.2 -0.2 53 3.9 W 37 52 20 28 - - 0.0
20/12:00am 8.9 -0.1 -2.4 45 4.6 W 35 48 19 26 - - 0.0
 
Date/Time
EDT
Temp
°C
App
Temp
°C
Dew
Point
Rel
Hum
%
Delta-T
°C
Wind Press
QNH
hPa
Press
MSL
hPa
Rain
since 9 am
mm
Dir
 
Spd
km/h
Gust
km/h
Spd
kts
Gust
kts
19/11:30pm 8.8 0.9 -1.3 49 4.2 W 30 41 16 22 - - 0.0
19/11:00pm 9.2 2.1 -1.2 48 4.4 W 26 43 14 23 - - 0.0
19/10:34pm 9.2 1.3 -1.8 46 4.6 W 30 48 16 26 - - 0.0
19/10:30pm 9.2 0.7 -2.1 45 4.6 W 33 48 18 26 - - 0.0
19/10:00pm 9.9 1.0 -2.1 43 5.0 WNW 35 46 19 25 - - 0.0
19/09:30pm 10.1 1.6 1.0 53 4.1 WNW 35 44 19 24 - - 0.0

Other Formats:

Comma delimited format used in spreadsheet applications
http://www.bom.gov.au/fwo/IDT60801/IDT60801.95979.axf

JavaScript Object Notation format (JSON) in row-major order
http://www.bom.gov.au/fwo/IDT60801/IDT60801.95979.json